Terminal Aerodrome Forecast
Issued by NWS

Home | Current Version | Previous Version | Text Only | Print | Product List | Glossary On
Versions: 1 2 3 4 5 6 7 8 9 10 11 12 13 14 15
058
FTUS43 KOAX 181857 AAA
TAFCDR
TAF AMD
KCDR 181857Z 1819/1918 03012KT P6SM BKN050 OVC100
     FM182000 04016G23KT P6SM BKN015
     FM190300 03018G28KT 1SM -SN OVC015=

USA.gov is the U.S. government's official web portal to all federal, state and local government web resources and services.